Time;durP1;ratioP1;P1;durP2;ratioP2;P2;SDS_P1;SDS_P2;PMS_P1;PMS_P2;Temp;Humidity;BMP_temperature;BMP_pressure;BME280_temperature;BME280_humidity;BME280_pressure;Samples;Min_cycle;Max_cycle;Signal;HPM_P1;HPM_P2
2021/06/25 00:00:44;;;;;;;11.98;7.20;;;18.30;99.90;;;;;;5073964;28;20028;-77
2021/06/25 00:03:09;;;;;;;15.23;8.02;;;18.30;99.90;;;;;;5073710;28;20021;-77
2021/06/25 00:05:35;;;;;;;10.57;7.47;;;18.30;99.90;;;;;;5073604;28;20066;-77
2021/06/25 00:08:01;;;;;;;10.95;6.65;;;18.30;99.90;;;;;;5073708;28;20485;-77
2021/06/25 00:10:27;;;;;;;16.30;9.60;;;18.30;99.90;;;;;;5072384;28;20023;-78
2021/06/25 00:12:52;;;;;;;11.85;7.32;;;18.30;99.90;;;;;;5072455;28;20389;-77
2021/06/25 00:15:18;;;;;;;10.05;6.93;;;18.30;99.90;;;;;;5072423;28;20059;-77
2021/06/25 00:17:44;;;;;;;10.45;6.70;;;18.30;99.90;;;;;;5065026;28;20028;-77
2021/06/25 00:20:13;;;;;;;11.98;6.78;;;18.30;99.90;;;;;;5073256;28;20482;-78
2021/06/25 00:22:39;;;;;;;9.60;6.10;;;18.30;99.90;;;;;;5072190;28;20021;-78
2021/06/25 00:25:05;;;;;;;9.90;5.88;;;18.30;99.90;;;;;;5072064;28;20082;-78
2021/06/25 00:27:31;;;;;;;9.73;6.00;;;18.30;99.90;;;;;;5073418;28;20058;-77
2021/06/25 00:29:56;;;;;;;8.98;6.65;;;18.30;99.90;;;;;;5072137;28;20016;-77
2021/06/25 00:32:22;;;;;;;8.05;6.30;;;18.20;99.90;;;;;;5073213;28;20077;-77
2021/06/25 00:34:48;;;;;;;8.40;5.90;;;18.20;99.90;;;;;;5073338;28;20103;-78
2021/06/25 00:37:13;;;;;;;9.07;6.03;;;18.20;99.90;;;;;;5073246;28;20389;-77
2021/06/25 00:39:39;;;;;;;6.97;5.05;;;18.20;99.90;;;;;;5072996;28;20037;-78
2021/06/25 00:42:08;;;;;;;9.55;5.38;;;18.10;99.90;;;;;;5071899;28;20035;-77
2021/06/25 00:44:41;;;;;;;7.15;5.75;;;18.00;99.90;;;;;;5070501;28;20093;-78
2021/06/25 00:47:08;;;;;;;6.57;5.03;;;18.10;99.90;;;;;;5053322;28;20025;-78
2021/06/25 00:49:34;;;;;;;8.75;5.53;;;18.00;99.90;;;;;;5071446;28;20013;-78
2021/06/25 00:52:00;;;;;;;8.48;5.32;;;17.90;99.90;;;;;;5072746;28;20082;-77
2021/06/25 00:54:26;;;;;;;9.50;6.45;;;17.90;99.90;;;;;;5071697;28;20029;-78
2021/06/25 00:56:51;;;;;;;8.00;6.10;;;17.90;99.90;;;;;;5072369;28;20029;-78
2021/06/25 00:59:17;;;;;;;9.70;5.82;;;17.90;99.90;;;;;;5071706;28;20032;-78
2021/06/25 01:01:43;;;;;;;12.25;6.20;;;17.80;99.90;;;;;;5071702;28;20451;-78
2021/06/25 01:04:11;;;;;;;12.55;5.63;;;17.90;99.90;;;;;;5071696;28;20104;-79
2021/06/25 01:06:37;;;;;;;7.03;5.68;;;17.80;99.90;;;;;;5073092;28;20032;-78
2021/06/25 01:09:05;;;;;;;9.20;5.68;;;17.90;99.90;;;;;;5064709;28;20044;-79
2021/06/25 01:11:31;;;;;;;15.77;7.85;;;17.80;99.90;;;;;;5053716;28;20029;-78
2021/06/25 01:13:58;;;;;;;11.68;6.90;;;17.80;99.90;;;;;;5070703;28;20044;-78
2021/06/25 01:16:24;;;;;;;11.45;7.05;;;17.80;99.90;;;;;;5072492;28;20029;-78
2021/06/25 01:18:50;;;;;;;9.68;5.90;;;17.80;99.90;;;;;;5071306;28;20032;-78
2021/06/25 01:21:15;;;;;;;13.40;7.15;;;17.80;99.90;;;;;;5072143;28;20027;-78
2021/06/25 01:23:42;;;;;;;8.07;5.05;;;17.80;99.90;;;;;;5072745;28;20020;-77
2021/06/25 01:26:09;;;;;;;7.03;5.72;;;17.80;99.90;;;;;;5071442;28;20141;-77
2021/06/25 01:28:36;;;;;;;8.48;6.22;;;17.80;99.90;;;;;;5071149;28;20082;-77
2021/06/25 01:31:03;;;;;;;12.50;7.05;;;17.80;99.90;;;;;;5071430;28;20033;-77
2021/06/25 01:33:29;;;;;;;9.80;5.88;;;17.70;99.90;;;;;;5072250;28;20017;-77
2021/06/25 01:35:55;;;;;;;8.05;5.30;;;17.70;99.90;;;;;;5072699;28;20079;-77
2021/06/25 01:38:22;;;;;;;10.57;4.85;;;17.50;99.90;;;;;;5071276;28;20036;-77
2021/06/25 01:40:47;;;;;;;11.95;5.75;;;17.20;99.90;;;;;;5072492;28;20462;-77
2021/06/25 01:43:13;;;;;;;11.45;5.75;;;17.20;99.90;;;;;;5071120;28;20021;-78
2021/06/25 01:45:41;;;;;;;10.90;5.93;;;17.20;99.90;;;;;;5071228;28;20016;-78
2021/06/25 01:48:08;;;;;;;9.52;4.90;;;17.20;99.90;;;;;;5071156;28;20024;-77
2021/06/25 01:50:38;;;;;;;7.75;4.70;;;17.10;99.90;;;;;;5071229;28;20363;-77
2021/06/25 01:53:14;;;;;;;11.05;5.53;;;17.10;99.90;;;;;;5072307;28;20024;-77
2021/06/25 01:55:41;;;;;;;7.60;4.88;;;17.10;99.90;;;;;;5072365;28;20024;-77
2021/06/25 01:58:11;;;;;;;6.68;4.75;;;17.20;99.90;;;;;;5071034;28;20131;-77
2021/06/25 02:00:39;;;;;;;7.97;4.78;;;17.20;99.90;;;;;;5069014;28;20111;-78
2021/06/25 02:03:05;;;;;;;8.77;5.35;;;17.20;99.90;;;;;;5071086;28;20029;-78
2021/06/25 02:05:31;;;;;;;8.02;5.00;;;17.10;99.90;;;;;;5072382;28;20386;-77
2021/06/25 02:07:56;;;;;;;7.15;4.60;;;17.10;99.90;;;;;;5071090;28;20020;-77
2021/06/25 02:10:22;;;;;;;9.40;4.90;;;17.10;99.90;;;;;;5070969;28;20070;-77
2021/06/25 02:12:48;;;;;;;6.85;4.95;;;17.00;99.90;;;;;;5068211;28;20082;-77
2021/06/25 02:15:14;;;;;;;10.32;5.65;;;17.00;99.90;;;;;;5051072;28;20021;-77
2021/06/25 02:17:40;;;;;;;8.18;5.90;;;16.90;99.90;;;;;;5053920;28;20074;-77
2021/06/25 02:20:07;;;;;;;11.32;6.13;;;16.90;99.90;;;;;;5072232;28;20478;-77
2021/06/25 02:22:34;;;;;;;9.20;5.28;;;16.80;99.90;;;;;;5070072;28;20078;-77
2021/06/25 02:25:00;;;;;;;8.95;5.43;;;16.70;99.90;;;;;;5072235;28;20021;-77
2021/06/25 02:27:26;;;;;;;9.10;6.22;;;16.70;99.90;;;;;;5070838;28;20017;-77
2021/06/25 02:29:51;;;;;;;10.20;5.57;;;16.70;99.90;;;;;;5071843;28;20036;-77
2021/06/25 02:32:17;;;;;;;7.78;5.32;;;16.80;99.90;;;;;;5072099;28;20029;-76
2021/06/25 02:34:43;;;;;;;7.60;5.65;;;16.90;99.90;;;;;;5073578;28;20486;-77
2021/06/25 02:37:08;;;;;;;10.35;6.50;;;16.80;99.90;;;;;;5074112;28;20398;-77
2021/06/25 02:39:34;;;;;;;8.77;5.32;;;16.80;99.90;;;;;;5075524;28;20032;-77
2021/06/25 02:42:00;;;;;;;11.65;7.10;;;16.90;99.90;;;;;;5072043;28;20036;-77
2021/06/25 02:44:25;;;;;;;8.82;5.20;;;16.90;99.90;;;;;;5054192;28;20056;-77
2021/06/25 02:46:51;;;;;;;9.23;4.82;;;17.00;99.90;;;;;;5054576;28;20482;-77
2021/06/25 02:49:17;;;;;;;10.05;5.30;;;16.90;99.90;;;;;;5074007;28;20494;-78
2021/06/25 02:51:43;;;;;;;9.52;5.07;;;16.80;99.90;;;;;;5073711;28;20481;-77
2021/06/25 02:54:10;;;;;;;6.57;4.78;;;16.70;99.90;;;;;;5073008;28;20032;-78
2021/06/25 02:56:35;;;;;;;9.18;5.18;;;16.70;99.90;;;;;;5075081;28;20043;-77
2021/06/25 02:59:01;;;;;;;9.05;5.20;;;16.60;99.90;;;;;;5074003;28;20115;-78
2021/06/25 03:01:27;;;;;;;8.38;5.30;;;16.60;99.90;;;;;;5075116;28;20025;-77
2021/06/25 03:03:52;;;;;;;8.27;5.38;;;16.60;99.90;;;;;;5074825;28;20103;-78
2021/06/25 03:06:18;;;;;;;9.13;6.07;;;16.60;99.90;;;;;;5072466;28;20032;-77
2021/06/25 03:08:43;;;;;;;11.15;6.13;;;16.70;99.90;;;;;;5074842;28;20052;-78
2021/06/25 03:11:09;;;;;;;9.93;5.18;;;16.70;99.90;;;;;;5073731;28;20056;-77
2021/06/25 03:13:35;;;;;;;8.35;5.80;;;16.70;99.90;;;;;;5074688;28;20044;-78
2021/06/25 03:16:01;;;;;;;9.23;5.93;;;16.70;99.90;;;;;;5074807;28;20068;-78
2021/06/25 03:18:26;;;;;;;9.55;5.75;;;16.70;99.90;;;;;;5065003;28;20413;-78
2021/06/25 03:20:52;;;;;;;10.35;6.28;;;16.60;99.90;;;;;;5074894;28;20539;-77
2021/06/25 03:23:18;;;;;;;10.80;6.50;;;16.50;99.90;;;;;;5072650;28;20530;-77
2021/06/25 03:25:44;;;;;;;9.23;6.60;;;16.50;99.90;;;;;;5073806;28;20021;-78
2021/06/25 03:28:10;;;;;;;10.45;5.75;;;16.50;99.90;;;;;;5074490;28;20029;-78
2021/06/25 03:30:36;;;;;;;8.60;4.78;;;16.40;99.90;;;;;;5067996;28;20055;-78
2021/06/25 03:33:03;;;;;;;6.18;4.57;;;16.40;99.90;;;;;;5057107;28;20563;-77
2021/06/25 03:35:29;;;;;;;8.27;5.05;;;16.40;99.90;;;;;;5073236;28;20017;-78
2021/06/25 03:37:54;;;;;;;7.03;4.38;;;16.40;99.90;;;;;;5073053;28;20173;-77
2021/06/25 03:40:20;;;;;;;5.63;4.28;;;16.40;99.90;;;;;;5073230;28;20568;-77
2021/06/25 03:42:46;;;;;;;7.97;4.78;;;16.50;99.90;;;;;;5073864;28;20482;-78
2021/06/25 03:45:13;;;;;;;7.45;4.70;;;16.50;99.90;;;;;;5073987;28;20024;-77
2021/06/25 03:47:40;;;;;;;9.35;5.03;;;16.60;99.90;;;;;;5071744;28;20116;-76
2021/06/25 03:50:06;;;;;;;7.03;4.80;;;16.70;99.90;;;;;;5074149;28;20474;-76
2021/06/25 03:52:32;;;;;;;9.57;5.05;;;16.70;99.90;;;;;;5058187;28;20029;-75
2021/06/25 03:54:58;;;;;;;6.68;4.75;;;16.80;99.90;;;;;;5054261;28;20071;-76
2021/06/25 03:57:23;;;;;;;7.47;4.85;;;16.80;99.90;;;;;;5052791;28;20025;-75
2021/06/25 03:59:49;;;;;;;6.22;4.57;;;16.80;99.90;;;;;;5052690;28;20450;-77
2021/06/25 04:02:15;;;;;;;5.05;4.47;;;16.80;99.90;;;;;;5063418;28;20020;-76
2021/06/25 04:04:42;;;;;;;14.45;4.82;;;16.80;99.90;;;;;;5073928;28;20516;-77
2021/06/25 04:07:07;;;;;;;7.45;4.13;;;16.70;99.90;;;;;;5072765;28;20073;-76
2021/06/25 04:09:34;;;;;;;10.40;4.97;;;16.80;99.90;;;;;;5071489;28;20029;-77
2021/06/25 04:12:00;;;;;;;9.25;4.80;;;16.80;99.90;;;;;;5073502;28;20044;-76
2021/06/25 04:14:26;;;;;;;5.72;4.32;;;16.90;99.90;;;;;;5072111;28;20031;-77
2021/06/25 04:16:52;;;;;;;5.15;4.05;;;17.00;99.90;;;;;;5072287;28;20025;-76
2021/06/25 04:19:18;;;;;;;7.43;4.25;;;17.10;99.90;;;;;;5072181;28;20072;-76
2021/06/25 04:21:44;;;;;;;5.22;4.00;;;17.10;99.90;;;;;;5066347;28;20045;-77
2021/06/25 04:24:11;;;;;;;4.97;4.18;;;17.30;99.90;;;;;;5069851;28;20041;-77
2021/06/25 04:26:38;;;;;;;6.70;4.50;;;17.40;99.90;;;;;;5071812;28;20016;-76
2021/06/25 04:29:07;;;;;;;7.47;3.10;;;17.30;99.90;;;;;;5073604;28;20126;-76
2021/06/25 04:31:34;;;;;;;6.20;3.65;;;17.50;99.90;;;;;;5072222;28;20028;-76
2021/06/25 04:34:00;;;;;;;4.88;3.20;;;17.50;99.90;;;;;;5068517;28;20021;-76
2021/06/25 04:36:26;;;;;;;6.60;3.35;;;17.60;99.90;;;;;;5053327;28;20429;-77
2021/06/25 04:38:52;;;;;;;4.03;2.78;;;17.60;99.90;;;;;;5053309;28;20033;-77
2021/06/25 04:41:17;;;;;;;7.28;3.10;;;17.70;99.90;;;;;;5052047;28;20067;-76
2021/06/25 04:43:43;;;;;;;10.48;3.30;;;17.70;99.90;;;;;;5065119;28;20020;-77
2021/06/25 04:46:09;;;;;;;5.10;3.28;;;17.80;99.90;;;;;;5073232;28;20039;-76
2021/06/25 04:48:35;;;;;;;5.07;3.03;;;17.90;99.90;;;;;;5071728;28;20033;-76
2021/06/25 04:51:01;;;;;;;4.55;3.28;;;18.10;99.90;;;;;;5071730;28;20567;-76
2021/06/25 04:53:27;;;;;;;7.53;3.30;;;18.30;99.90;;;;;;5071429;28;20025;-77
2021/06/25 04:55:53;;;;;;;8.50;4.55;;;18.40;99.90;;;;;;5071779;28;20025;-76
2021/06/25 04:58:22;;;;;;;3.05;2.75;;;18.60;99.90;;;;;;5052348;28;20033;-77
2021/06/25 05:00:48;;;;;;;6.97;2.90;;;18.80;99.90;;;;;;5057189;28;20032;-76
2021/06/25 05:03:14;;;;;;;4.90;2.90;;;18.80;99.90;;;;;;5103387;28;20099;-76
2021/06/25 05:05:44;;;;;;;6.13;3.30;;;18.70;99.90;;;;;;5071487;28;20043;-75
2021/06/25 05:08:11;;;;;;;2.95;2.70;;;18.70;99.90;;;;;;5071522;28;20474;-76
2021/06/25 05:10:37;;;;;;;2.80;2.60;;;18.60;99.90;;;;;;5070642;28;20430;-75
2021/06/25 05:13:03;;;;;;;3.80;2.70;;;18.60;99.90;;;;;;5061434;28;20555;-76
2021/06/25 05:15:29;;;;;;;4.95;2.90;;;18.70;99.90;;;;;;5072766;28;20066;-76
2021/06/25 05:17:56;;;;;;;4.75;2.70;;;18.80;99.90;;;;;;5071108;28;20028;-75
2021/06/25 05:20:22;;;;;;;3.38;3.05;;;18.80;99.90;;;;;;5071574;28;20425;-76
2021/06/25 05:22:47;;;;;;;2.85;2.58;;;18.80;99.90;;;;;;5072569;28;20032;-75
2021/06/25 05:25:14;;;;;;;4.40;2.80;;;18.80;99.90;;;;;;5072357;28;20025;-76
2021/06/25 05:27:40;;;;;;;4.20;3.13;;;18.80;99.90;;;;;;5072672;28;20509;-75
2021/06/25 05:30:07;;;;;;;4.60;3.33;;;18.90;99.90;;;;;;5066684;28;20021;-77
2021/06/25 05:32:34;;;;;;;3.55;3.22;;;18.90;99.90;;;;;;5061457;28;20052;-78
2021/06/25 05:35:00;;;;;;;6.78;3.42;;;18.90;99.90;;;;;;5060148;28;20107;-78
2021/06/25 05:37:26;;;;;;;6.43;3.67;;;18.80;99.90;;;;;;5057874;28;20360;-78
2021/06/25 05:39:52;;;;;;;4.65;4.22;;;18.90;99.90;;;;;;5071281;28;20039;-78
2021/06/25 05:42:18;;;;;;;6.57;3.67;;;19.00;99.90;;;;;;5070535;28;20397;-77
2021/06/25 05:44:44;;;;;;;7.55;4.38;;;19.00;99.90;;;;;;5067663;28;20067;-77
2021/06/25 05:47:09;;;;;;;4.78;3.78;;;19.30;99.90;;;;;;5066360;28;20020;-77
2021/06/25 05:49:35;;;;;;;5.43;4.05;;;19.50;99.90;;;;;;5065665;28;20095;-77
2021/06/25 05:52:01;;;;;;;6.68;4.32;;;19.50;99.90;;;;;;5064300;28;20047;-77
2021/06/25 05:54:26;;;;;;;4.93;4.00;;;19.70;99.90;;;;;;5068253;28;20086;-77
2021/06/25 05:56:53;;;;;;;5.25;4.07;;;19.60;99.90;;;;;;5068694;28;20078;-77
2021/06/25 05:59:18;;;;;;;6.85;4.85;;;19.70;99.90;;;;;;5068732;28;20032;-77
2021/06/25 06:01:44;;;;;;;6.65;4.47;;;19.70;99.90;;;;;;5070719;28;20020;-77
2021/06/25 06:04:10;;;;;;;3.22;3.00;;;19.80;99.90;;;;;;5060964;28;20029;-77
2021/06/25 06:06:35;;;;;;;5.47;3.42;;;19.70;99.90;;;;;;5050543;28;20108;-77
2021/06/25 06:09:03;;;;;;;5.78;3.85;;;19.70;99.90;;;;;;5055236;28;20075;-78
2021/06/25 06:11:29;;;;;;;6.70;4.18;;;19.70;99.90;;;;;;5056161;28;20025;-77
2021/06/25 06:13:55;;;;;;;4.93;4.43;;;19.80;99.90;;;;;;5064004;28;20032;-77
2021/06/25 06:16:20;;;;;;;5.50;4.30;;;19.90;99.90;;;;;;5064991;28;20009;-77
2021/06/25 06:18:47;;;;;;;6.45;4.72;;;20.00;99.90;;;;;;5073167;28;20394;-77
2021/06/25 06:21:19;;;;;;;8.63;5.57;;;20.00;99.90;;;;;;5075518;28;20032;-77
2021/06/25 06:32:04;;;;;;;13.10;8.93;;;20.00;99.90;;;;;;5055293;28;20036;-77
2021/06/25 06:34:32;;;;;;;10.85;8.65;;;20.10;99.90;;;;;;5059116;28;20021;-77
2021/06/25 06:36:58;;;;;;;10.95;7.25;;;20.20;99.90;;;;;;5071045;28;20056;-77
2021/06/25 06:39:23;;;;;;;10.38;7.10;;;20.10;99.90;;;;;;5075487;28;20519;-78
2021/06/25 06:41:49;;;;;;;10.90;7.78;;;20.20;99.90;;;;;;5074688;28;20028;-77
2021/06/25 06:44:15;;;;;;;9.57;7.07;;;20.30;99.90;;;;;;5075015;28;20056;-77
2021/06/25 06:46:40;;;;;;;10.70;7.40;;;20.30;99.90;;;;;;5067399;28;20685;-77
2021/06/25 06:49:06;;;;;;;11.60;7.63;;;20.30;99.90;;;;;;5075535;28;20112;-77
2021/06/25 06:51:32;;;;;;;11.98;7.80;;;20.40;99.90;;;;;;5070215;28;20107;-78
2021/06/25 06:54:00;;;;;;;13.13;8.68;;;20.50;99.90;;;;;;5056959;28;20376;-78
2021/06/25 06:56:26;;;;;;;12.95;8.27;;;20.50;99.90;;;;;;5070560;28;20067;-78
2021/06/25 06:58:53;;;;;;;11.93;8.27;;;20.50;99.90;;;;;;5059345;28;20055;-78
2021/06/25 07:01:20;;;;;;;11.07;7.90;;;20.50;99.90;;;;;;5055262;28;20017;-78
2021/06/25 07:03:45;;;;;;;13.15;9.40;;;20.70;99.90;;;;;;5055161;28;20479;-78
2021/06/25 07:06:11;;;;;;;16.33;10.77;;;20.70;99.90;;;;;;5055239;28;20028;-77
2021/06/25 07:08:37;;;;;;;15.38;12.25;;;20.70;99.90;;;;;;5053699;28;20021;-79
2021/06/25 07:11:02;;;;;;;16.13;11.90;;;20.60;99.90;;;;;;5059895;28;20021;-78
2021/06/25 07:13:28;;;;;;;17.77;12.40;;;20.50;99.90;;;;;;5074874;28;20025;-78
2021/06/25 07:15:55;;;;;;;24.17;13.00;;;20.60;99.90;;;;;;5074987;28;20031;-79
2021/06/25 07:18:21;;;;;;;16.58;12.23;;;20.70;99.90;;;;;;5073420;28;20028;-78
2021/06/25 07:20:47;;;;;;;17.63;12.95;;;20.70;99.90;;;;;;5073965;28;20123;-79
2021/06/25 07:23:13;;;;;;;13.15;10.68;;;20.70;99.90;;;;;;5074489;28;20092;-78
2021/06/25 07:25:39;;;;;;;15.38;10.50;;;20.70;99.90;;;;;;5072713;28;20017;-78
2021/06/25 07:28:06;;;;;;;14.30;10.18;;;20.70;99.90;;;;;;5072371;28;20359;-79
2021/06/25 07:30:32;;;;;;;14.73;11.45;;;20.70;99.90;;;;;;5073193;28;20389;-78
2021/06/25 07:32:58;;;;;;;14.43;11.70;;;20.70;99.90;;;;;;5073340;28;20025;-78
2021/06/25 07:35:23;;;;;;;17.17;11.27;;;20.70;99.90;;;;;;5073301;28;20021;-79
2021/06/25 07:37:49;;;;;;;15.20;11.73;;;20.70;99.90;;;;;;5069869;28;20041;-79
2021/06/25 07:40:15;;;;;;;12.90;10.38;;;20.80;99.90;;;;;;5068698;28;20100;-79
2021/06/25 07:42:42;;;;;;;14.15;10.95;;;21.00;99.90;;;;;;5074333;28;20054;-79
2021/06/25 07:45:09;;;;;;;12.13;9.68;;;21.10;99.90;;;;;;5054553;28;20032;-79
2021/06/25 07:47:40;;;;;;;11.80;10.05;;;21.10;99.90;;;;;;5072603;28;20027;-77
2021/06/25 07:50:08;;;;;;;12.43;10.50;;;21.20;99.90;;;;;;5054665;28;20084;-79
2021/06/25 07:52:34;;;;;;;13.77;10.18;;;21.30;99.90;;;;;;5067079;28;20477;-79
2021/06/25 07:55:00;;;;;;;16.17;8.98;;;21.30;99.90;;;;;;5069544;28;20029;-79
2021/06/25 07:57:26;;;;;;;10.98;9.68;;;21.40;99.90;;;;;;5070749;28;20497;-79
2021/06/25 07:59:51;;;;;;;10.98;9.02;;;21.40;99.90;;;;;;5070327;28;20045;-79
2021/06/25 08:02:18;;;;;;;15.52;10.50;;;21.50;99.90;;;;;;5070554;28;20076;-79
2021/06/25 08:04:47;;;;;;;14.00;10.25;;;21.60;99.90;;;;;;5071839;28;20017;-80
2021/06/25 08:07:17;;;;;;;11.75;9.40;;;21.50;99.90;;;;;;5072541;28;20025;-79
2021/06/25 08:09:43;;;;;;;12.68;9.63;;;21.50;99.90;;;;;;5072667;28;20047;-79
2021/06/25 08:12:10;;;;;;;19.95;12.25;;;21.60;99.90;;;;;;5071662;28;20021;-83
2021/06/25 08:14:36;;;;;;;23.25;14.05;;;21.50;99.90;;;;;;5064856;28;20131;-83
2021/06/25 08:17:03;;;;;;;16.77;12.18;;;21.50;99.90;;;;;;5069526;28;20031;-82
2021/06/25 08:19:29;;;;;;;43.45;27.17;;;21.70;99.90;;;;;;5071795;28;20600;-85
2021/06/25 08:21:55;;;;;;;16.75;12.65;;;21.60;99.90;;;;;;5073189;28;20111;-85
2021/06/25 08:24:21;;;;;;;12.07;10.48;;;21.60;99.90;;;;;;5072499;28;20028;-82
2021/06/25 08:26:46;;;;;;;15.77;13.30;;;21.60;99.90;;;;;;5073488;28;20024;-81
2021/06/25 08:29:12;;;;;;;22.95;15.77;;;21.40;99.90;;;;;;5073313;28;20020;-84
2021/06/25 08:31:38;;;;;;;18.85;15.23;;;21.20;99.90;;;;;;5071047;28;20028;-84
2021/06/25 08:34:05;;;;;;;19.80;15.82;;;21.00;99.90;;;;;;5065285;28;20473;-84
2021/06/25 08:36:31;;;;;;;19.92;15.35;;;21.00;99.90;;;;;;5070297;28;20024;-83
2021/06/25 08:38:57;;;;;;;22.63;16.33;;;20.80;99.90;;;;;;5071273;28;20389;-84
2021/06/25 08:41:23;;;;;;;20.42;15.40;;;20.70;99.90;;;;;;5071776;28;20509;-83
2021/06/25 08:43:48;;;;;;;19.92;15.13;;;20.60;99.90;;;;;;5070333;28;20103;-83
2021/06/25 08:46:15;;;;;;;21.15;16.50;;;20.40;99.90;;;;;;5066207;28;20024;-83
2021/06/25 08:48:47;;;;;;;23.10;15.98;;;20.30;99.90;;;;;;5071045;28;20022;-84
2021/06/25 08:51:12;;;;;;;25.40;15.80;;;20.20;99.90;;;;;;5069819;28;20035;-84
2021/06/25 08:53:38;;;;;;;24.30;18.05;;;20.10;99.90;;;;;;5069439;28;20029;-84
2021/06/25 08:56:04;;;;;;;24.63;16.52;;;20.10;99.90;;;;;;5069818;28;20109;-84
2021/06/25 08:58:30;;;;;;;28.27;17.77;;;20.10;99.90;;;;;;5065982;28;20493;-84
2021/06/25 09:00:57;;;;;;;31.45;19.33;;;20.20;99.90;;;;;;5071200;28;20063;-84
2021/06/25 09:03:24;;;;;;;23.42;16.30;;;20.10;99.90;;;;;;5051311;28;20362;-84
2021/06/25 09:05:51;;;;;;;22.17;17.30;;;20.20;99.90;;;;;;5049365;28;20131;-84
2021/06/25 09:08:30;;;;;;;24.25;16.17;;;20.30;99.90;;;;;;5068547;28;20063;-83
2021/06/25 09:10:59;;;;;;;25.95;19.65;;;20.40;99.90;;;;;;5050862;28;20403;-83
2021/06/25 09:13:43;;;;;;;27.92;18.70;;;20.30;99.90;;;;;;5070333;28;20044;-83
2021/06/25 09:16:32;;;;;;;23.90;17.65;;;20.40;99.90;;;;;;5066478;28;20548;-83
2021/06/25 09:19:05;;;;;;;28.63;17.80;;;20.40;99.90;;;;;;5071055;28;20032;-83
2021/06/25 09:21:36;;;;;;;27.45;18.83;;;20.50;99.90;;;;;;5064124;28;20354;-83
2021/06/25 09:24:23;;;;;;;33.22;19.15;;;20.60;99.90;;;;;;5052512;28;20029;-83
2021/06/25 09:26:50;;;;;;;26.35;18.75;;;20.60;99.90;;;;;;5070154;28;20487;-83
2021/06/25 09:29:22;;;;;;;27.05;20.27;;;20.60;99.90;;;;;;5070926;28;20021;-83
2021/06/25 09:32:03;;;;;;;26.20;18.43;;;20.60;99.90;;;;;;5069809;28;20462;-83
2021/06/25 09:34:48;;;;;;;27.50;16.67;;;20.60;99.90;;;;;;5070373;28;20048;-83
2021/06/25 09:37:16;;;;;;;25.40;18.30;;;20.60;99.90;;;;;;5050282;28;20017;-83
2021/06/25 09:39:56;;;;;;;24.27;18.50;;;20.70;99.90;;;;;;5051779;28;20045;-83
2021/06/25 09:42:22;;;;;;;24.27;17.60;;;20.80;99.90;;;;;;5052055;28;20128;-83
2021/06/25 09:45:03;;;;;;;22.40;16.63;;;20.80;99.90;;;;;;5066333;28;20025;-83
2021/06/25 09:47:30;;;;;;;24.35;18.10;;;20.80;99.90;;;;;;5076684;28;20024;-84
2021/06/25 09:50:16;;;;;;;23.40;16.52;;;20.80;99.90;;;;;;5075373;28;20021;-83
2021/06/25 09:52:52;;;;;;;22.80;16.58;;;20.80;99.90;;;;;;5062314;28;20037;-83
2021/06/25 09:55:23;;;;;;;20.20;15.15;;;20.80;99.90;;;;;;5063420;28;20029;-83
2021/06/25 10:01:21;;;;;;;21.50;15.20;;;20.70;99.90;;;;;;5068454;28;20283;-84
2021/06/25 10:03:51;;;;;;;19.55;14.77;;;20.80;99.90;;;;;;5075065;28;20139;-83
2021/06/25 10:06:18;;;;;;;20.55;15.68;;;20.80;99.90;;;;;;5076330;28;20029;-84
2021/06/25 10:08:45;;;;;;;21.55;16.55;;;20.90;99.90;;;;;;5075234;28;20020;-84
2021/06/25 10:11:12;;;;;;;20.73;15.85;;;20.90;99.90;;;;;;5075197;28;20048;-84
2021/06/25 10:13:40;;;;;;;20.30;16.42;;;20.90;99.90;;;;;;5076066;28;20482;-84
2021/06/25 10:16:08;;;;;;;21.75;15.18;;;20.80;99.90;;;;;;5074785;28;20482;-84
2021/06/25 10:18:39;;;;;;;20.10;15.45;;;20.80;99.90;;;;;;5059584;28;20049;-84
2021/06/25 10:21:08;;;;;;;21.07;15.27;;;20.70;99.90;;;;;;5065304;28;20017;-84
2021/06/25 10:23:36;;;;;;;19.70;15.65;;;20.80;99.90;;;;;;5053269;28;20267;-84
2021/06/25 10:26:07;;;;;;;24.40;17.23;;;20.80;99.90;;;;;;5072503;28;20127;-83
2021/06/25 10:28:37;;;;;;;23.33;16.08;;;20.80;99.90;;;;;;5072752;28;20028;-83
2021/06/25 10:31:04;;;;;;;21.23;15.13;;;20.60;99.90;;;;;;5072705;28;20021;-83
2021/06/25 10:33:30;;;;;;;23.85;15.27;;;20.60;99.90;;;;;;5073666;28;20029;-82
2021/06/25 10:35:57;;;;;;;23.17;15.93;;;20.60;99.90;;;;;;5067174;28;20013;-82
2021/06/25 10:38:27;;;;;;;20.98;15.48;;;20.50;99.90;;;;;;5062640;28;20032;-84
2021/06/25 10:41:01;;;;;;;20.15;15.02;;;20.40;99.90;;;;;;5060183;28;20029;-84
2021/06/25 10:43:53;;;;;;;22.88;17.02;;;20.40;99.90;;;;;;5062160;28;20012;-83
2021/06/25 10:46:32;;;;;;;23.80;15.45;;;20.30;99.90;;;;;;5062351;28;20021;-83
2021/06/25 10:49:04;;;;;;;26.95;18.85;;;20.20;99.90;;;;;;5065491;28;20470;-84
2021/06/25 10:51:37;;;;;;;33.90;18.98;;;20.10;99.90;;;;;;5065095;28;20026;-84
2021/06/25 10:54:09;;;;;;;28.38;18.17;;;20.00;99.90;;;;;;5063512;28;20493;-83
2021/06/25 10:56:40;;;;;;;27.13;18.35;;;19.90;99.90;;;;;;5064654;28;20025;-84
2021/06/25 10:59:40;;;;;;;26.17;18.35;;;19.80;99.90;;;;;;5063897;28;20021;-82
2021/06/25 11:02:07;;;;;;;24.92;17.90;;;19.80;99.90;;;;;;5064139;28;20052;-83
2021/06/25 11:04:46;;;;;;;27.77;19.65;;;19.80;99.90;;;;;;5066463;28;21136;-83
2021/06/25 11:07:16;;;;;;;25.15;17.20;;;19.80;99.90;;;;;;5064525;28;20120;-83
2021/06/25 11:09:59;;;;;;;29.05;18.95;;;19.80;99.90;;;;;;5062725;28;20013;-83
2021/06/25 11:12:35;;;;;;;30.33;19.30;;;19.70;99.90;;;;;;5062996;28;20568;-84
2021/06/25 11:15:04;;;;;;;27.75;18.77;;;19.70;99.90;;;;;;5062621;28;20150;-84
2021/06/25 11:17:53;;;;;;;32.65;19.25;;;19.80;99.90;;;;;;5063214;28;20056;-84
2021/06/25 11:20:24;;;;;;;29.23;18.33;;;19.80;99.90;;;;;;5063547;28;20024;-83
2021/06/25 11:22:59;;;;;;;28.15;19.08;;;19.80;99.90;;;;;;5064696;28;20052;-83
2021/06/25 11:25:43;;;;;;;28.63;18.35;;;19.80;99.90;;;;;;5063678;28;20017;-82
2021/06/25 11:28:30;;;;;;;32.28;22.35;;;19.90;99.90;;;;;;5064797;28;20024;-83
2021/06/25 11:31:00;;;;;;;43.88;24.67;;;19.90;99.90;;;;;;5058660;28;20032;-82
2021/06/25 11:33:34;;;;;;;45.78;26.52;;;19.90;99.90;;;;;;5053569;28;20527;-83
2021/06/25 11:36:39;;;;;;;40.08;25.55;;;19.90;99.90;;;;;;5058909;28;20028;-83
2021/06/25 11:39:13;;;;;;;42.83;26.38;;;20.00;99.90;;;;;;5074631;28;20028;-83
2021/06/25 11:41:47;;;;;;;45.75;27.38;;;20.00;99.90;;;;;;5073195;28;20040;-83
2021/06/25 11:44:20;;;;;;;41.50;27.23;;;20.00;99.90;;;;;;5073238;28;20028;-82
2021/06/25 11:46:53;;;;;;;41.60;26.25;;;20.00;99.90;;;;;;5074287;28;20478;-82
2021/06/25 11:49:20;;;;;;;37.20;24.35;;;19.90;99.90;;;;;;5072038;28;20025;-82
2021/06/25 11:51:46;;;;;;;43.45;25.75;;;20.10;99.90;;;;;;5072696;28;20024;-83
2021/06/25 11:54:17;;;;;;;40.53;25.95;;;20.20;99.90;;;;;;5073287;28;20047;-82
2021/06/25 11:56:47;;;;;;;37.20;25.98;;;20.30;99.90;;;;;;5070374;28;20116;-84
2021/06/25 11:59:15;;;;;;;40.35;25.77;;;20.40;99.90;;;;;;5051692;28;20501;-83
2021/06/25 12:01:55;;;;;;;41.60;25.00;;;20.40;99.90;;;;;;5051340;28;20025;-83
2021/06/25 12:04:37;;;;;;;38.28;25.08;;;20.40;99.90;;;;;;5067005;28;20012;-82
2021/06/25 12:07:05;;;;;;;47.75;27.27;;;20.50;99.90;;;;;;5066903;28;20048;-83
2021/06/25 12:09:37;;;;;;;36.33;24.25;;;20.60;99.90;;;;;;5064470;28;20023;-84
2021/06/25 12:12:03;;;;;;;;;;;20.40;99.90;;;;;;5070631;28;20036;-84
2021/06/25 12:14:44;;;;;;;38.88;23.27;;;20.50;99.90;;;;;;5068555;28;19915;-82
2021/06/25 12:17:10;;;;;;;37.38;22.70;;;20.70;99.90;;;;;;5070750;28;20608;-83
2021/06/25 12:19:36;;;;;;;32.13;21.73;;;20.80;99.90;;;;;;5070055;28;20489;-84
2021/06/25 12:22:09;;;;;;;36.03;21.75;;;20.90;99.90;;;;;;5071907;28;20039;-82
2021/06/25 12:24:52;;;;;;;35.80;21.33;;;20.90;99.90;;;;;;5058243;28;20031;-84
2021/06/25 12:27:18;;;;;;;30.88;20.38;;;20.70;99.90;;;;;;5061241;28;20060;-83
2021/06/25 12:29:47;;;;;;;31.20;20.42;;;20.70;99.90;;;;;;5059627;28;20453;-83
2021/06/25 12:32:22;;;;;;;31.17;20.88;;;20.60;99.90;;;;;;5059331;28;20040;-83
2021/06/25 12:34:58;;;;;;;29.30;20.13;;;20.60;99.90;;;;;;5055285;28;20025;-83
2021/06/25 12:37:43;;;;;;;33.45;21.52;;;20.60;99.90;;;;;;5064223;28;20103;-83
2021/06/25 12:40:09;;;;;;;34.35;20.45;;;20.60;99.90;;;;;;5061256;28;20051;-83
2021/06/25 12:42:35;;;;;;;30.60;21.85;;;20.80;99.90;;;;;;5061210;28;20060;-83
2021/06/25 12:45:01;;;;;;;30.05;20.60;;;20.90;99.90;;;;;;5063211;28;20060;-84
2021/06/25 12:47:29;;;;;;;34.08;22.27;;;21.10;99.90;;;;;;5058614;28;20024;-86
2021/06/25 12:49:55;;;;;;;34.25;22.77;;;21.00;99.90;;;;;;5059493;28;20541;-85
2021/06/25 12:52:25;;;;;;;35.53;23.52;;;20.90;99.90;;;;;;5066643;28;20108;-83